sensor_id;sensor_type;location;lat;lon;timestamp;P1;durP1;ratioP1;P2;durP2;ratioP2
31061;SDS011;17724;53.546;9.974;2023-02-13T00:03:53;17.70;;;11.27;;
31061;SDS011;17724;53.546;9.974;2023-02-13T00:07:54;17.57;;;10.60;;
31061;SDS011;17724;53.546;9.974;2023-02-13T00:11:54;17.03;;;11.30;;
31061;SDS011;17724;53.546;9.974;2023-02-13T00:15:59;16.70;;;10.30;;
31061;SDS011;17724;53.546;9.974;2023-02-13T00:20:01;18.33;;;12.30;;
31061;SDS011;17724;53.546;9.974;2023-02-13T00:24:02;17.03;;;10.70;;
31061;SDS011;17724;53.546;9.974;2023-02-13T00:28:02;17.63;;;10.50;;
31061;SDS011;17724;53.546;9.974;2023-02-13T00:32:03;17.07;;;10.40;;
31061;SDS011;17724;53.546;9.974;2023-02-13T00:36:05;16.80;;;10.70;;
31061;SDS011;17724;53.546;9.974;2023-02-13T00:40:07;16.20;;;10.10;;
31061;SDS011;17724;53.546;9.974;2023-02-13T00:44:08;16.57;;;9.50;;
31061;SDS011;17724;53.546;9.974;2023-02-13T00:48:09;16.60;;;10.37;;
31061;SDS011;17724;53.546;9.974;2023-02-13T00:52:09;17.50;;;10.60;;
31061;SDS011;17724;53.546;9.974;2023-02-13T00:56:10;17.57;;;10.70;;
31061;SDS011;17724;53.546;9.974;2023-02-13T01:00:11;18.83;;;11.20;;
31061;SDS011;17724;53.546;9.974;2023-02-13T01:04:11;17.33;;;9.80;;
31061;SDS011;17724;53.546;9.974;2023-02-13T01:08:12;17.70;;;10.60;;
31061;SDS011;17724;53.546;9.974;2023-02-13T01:12:13;17.00;;;10.33;;
31061;SDS011;17724;53.546;9.974;2023-02-13T01:16:16;20.00;;;11.20;;
31061;SDS011;17724;53.546;9.974;2023-02-13T01:20:17;18.77;;;11.60;;
31061;SDS011;17724;53.546;9.974;2023-02-13T01:24:18;21.03;;;12.27;;
31061;SDS011;17724;53.546;9.974;2023-02-13T01:28:18;17.30;;;10.90;;
31061;SDS011;17724;53.546;9.974;2023-02-13T01:32:18;17.50;;;10.63;;
31061;SDS011;17724;53.546;9.974;2023-02-13T01:36:19;18.67;;;11.60;;
31061;SDS011;17724;53.546;9.974;2023-02-13T01:40:20;19.27;;;11.30;;
31061;SDS011;17724;53.546;9.974;2023-02-13T01:48:50;17.90;;;10.43;;
31061;SDS011;17724;53.546;9.974;2023-02-13T01:52:57;18.93;;;11.27;;
31061;SDS011;17724;53.546;9.974;2023-02-13T01:57:10;18.37;;;10.93;;
31061;SDS011;17724;53.546;9.974;2023-02-13T02:01:15;19.40;;;10.70;;
31061;SDS011;17724;53.546;9.974;2023-02-13T02:05:16;18.50;;;10.90;;
31061;SDS011;17724;53.546;9.974;2023-02-13T02:09:19;17.60;;;10.10;;
31061;SDS011;17724;53.546;9.974;2023-02-13T02:13:26;16.07;;;9.90;;
31061;SDS011;17724;53.546;9.974;2023-02-13T02:17:27;17.90;;;10.63;;
31061;SDS011;17724;53.546;9.974;2023-02-13T02:21:36;15.67;;;9.47;;
31061;SDS011;17724;53.546;9.974;2023-02-13T02:43:48;18.90;;;11.07;;
31061;SDS011;17724;53.546;9.974;2023-02-13T02:48:02;15.70;;;9.67;;
31061;SDS011;17724;53.546;9.974;2023-02-13T02:52:30;16.63;;;9.90;;
31061;SDS011;17724;53.546;9.974;2023-02-13T02:57:00;16.27;;;10.37;;
31061;SDS011;17724;53.546;9.974;2023-02-13T03:01:08;16.53;;;9.13;;
31061;SDS011;17724;53.546;9.974;2023-02-13T03:05:43;16.07;;;9.20;;
31061;SDS011;17724;53.546;9.974;2023-02-13T03:10:06;17.20;;;10.00;;
31061;SDS011;17724;53.546;9.974;2023-02-13T03:14:33;16.47;;;10.10;;
31061;SDS011;17724;53.546;9.974;2023-02-13T03:18:35;18.50;;;10.70;;
31061;SDS011;17724;53.546;9.974;2023-02-13T03:23:03;15.40;;;9.27;;
31061;SDS011;17724;53.546;9.974;2023-02-13T03:31:48;17.20;;;9.03;;
31061;SDS011;17724;53.546;9.974;2023-02-13T03:36:10;16.87;;;8.40;;
31061;SDS011;17724;53.546;9.974;2023-02-13T03:40:50;16.53;;;8.60;;
31061;SDS011;17724;53.546;9.974;2023-02-13T03:45:23;15.20;;;7.30;;
31061;SDS011;17724;53.546;9.974;2023-02-13T03:49:47;14.07;;;7.90;;
31061;SDS011;17724;53.546;9.974;2023-02-13T03:54:11;14.50;;;8.03;;
31061;SDS011;17724;53.546;9.974;2023-02-13T03:58:21;16.13;;;8.47;;
31061;SDS011;17724;53.546;9.974;2023-02-13T04:07:20;13.80;;;7.33;;
31061;SDS011;17724;53.546;9.974;2023-02-13T04:12:15;14.60;;;7.90;;
31061;SDS011;17724;53.546;9.974;2023-02-13T04:15:55;15.63;;;7.93;;
31061;SDS011;17724;53.546;9.974;2023-02-13T04:20:01;15.27;;;8.90;;
31061;SDS011;17724;53.546;9.974;2023-02-13T04:24:03;13.43;;;7.17;;
31061;SDS011;17724;53.546;9.974;2023-02-13T04:28:03;15.77;;;8.77;;
31061;SDS011;17724;53.546;9.974;2023-02-13T04:32:04;15.50;;;8.63;;
31061;SDS011;17724;53.546;9.974;2023-02-13T04:36:04;16.70;;;8.87;;
31061;SDS011;17724;53.546;9.974;2023-02-13T04:40:05;15.20;;;8.27;;
31061;SDS011;17724;53.546;9.974;2023-02-13T04:44:06;15.20;;;8.03;;
31061;SDS011;17724;53.546;9.974;2023-02-13T04:48:07;17.00;;;9.53;;
31061;SDS011;17724;53.546;9.974;2023-02-13T04:52:07;15.53;;;8.83;;
31061;SDS011;17724;53.546;9.974;2023-02-13T04:56:08;14.57;;;8.60;;
31061;SDS011;17724;53.546;9.974;2023-02-13T05:00:09;15.50;;;8.40;;
31061;SDS011;17724;53.546;9.974;2023-02-13T05:04:10;16.30;;;8.20;;
31061;SDS011;17724;53.546;9.974;2023-02-13T05:08:15;15.57;;;8.70;;
31061;SDS011;17724;53.546;9.974;2023-02-13T05:12:15;16.10;;;8.10;;
31061;SDS011;17724;53.546;9.974;2023-02-13T05:16:16;15.03;;;8.60;;
31061;SDS011;17724;53.546;9.974;2023-02-13T05:20:16;15.33;;;8.80;;
31061;SDS011;17724;53.546;9.974;2023-02-13T05:24:17;16.20;;;9.60;;
31061;SDS011;17724;53.546;9.974;2023-02-13T05:28:18;16.23;;;8.80;;
31061;SDS011;17724;53.546;9.974;2023-02-13T05:32:37;16.57;;;8.30;;
31061;SDS011;17724;53.546;9.974;2023-02-13T05:36:37;16.43;;;8.90;;
31061;SDS011;17724;53.546;9.974;2023-02-13T05:40:39;17.60;;;8.80;;
31061;SDS011;17724;53.546;9.974;2023-02-13T05:44:39;14.10;;;8.00;;
31061;SDS011;17724;53.546;9.974;2023-02-13T05:48:40;16.10;;;9.10;;
31061;SDS011;17724;53.546;9.974;2023-02-13T05:52:40;14.87;;;8.17;;
31061;SDS011;17724;53.546;9.974;2023-02-13T05:56:41;17.33;;;8.70;;
31061;SDS011;17724;53.546;9.974;2023-02-13T06:00:41;15.20;;;7.87;;
31061;SDS011;17724;53.546;9.974;2023-02-13T06:04:41;15.13;;;8.20;;
31061;SDS011;17724;53.546;9.974;2023-02-13T06:08:42;16.77;;;8.17;;
31061;SDS011;17724;53.546;9.974;2023-02-13T06:12:43;14.70;;;8.10;;
31061;SDS011;17724;53.546;9.974;2023-02-13T06:16:43;16.73;;;8.70;;
31061;SDS011;17724;53.546;9.974;2023-02-13T06:20:43;15.10;;;8.37;;
31061;SDS011;17724;53.546;9.974;2023-02-13T06:24:44;16.43;;;9.63;;
31061;SDS011;17724;53.546;9.974;2023-02-13T06:28:45;17.80;;;10.10;;
31061;SDS011;17724;53.546;9.974;2023-02-13T06:32:46;17.87;;;10.00;;
31061;SDS011;17724;53.546;9.974;2023-02-13T06:36:47;17.70;;;9.60;;
31061;SDS011;17724;53.546;9.974;2023-02-13T06:40:48;17.03;;;10.07;;
31061;SDS011;17724;53.546;9.974;2023-02-13T06:44:48;18.20;;;12.07;;
31061;SDS011;17724;53.546;9.974;2023-02-13T06:48:49;16.80;;;10.03;;
31061;SDS011;17724;53.546;9.974;2023-02-13T06:52:50;18.83;;;10.40;;
31061;SDS011;17724;53.546;9.974;2023-02-13T06:56:51;19.40;;;11.40;;
31061;SDS011;17724;53.546;9.974;2023-02-13T07:00:51;19.13;;;11.40;;
31061;SDS011;17724;53.546;9.974;2023-02-13T07:04:52;17.30;;;10.77;;
31061;SDS011;17724;53.546;9.974;2023-02-13T07:08:53;18.33;;;12.23;;
31061;SDS011;17724;53.546;9.974;2023-02-13T07:12:55;16.80;;;10.20;;
31061;SDS011;17724;53.546;9.974;2023-02-13T07:16:55;19.57;;;11.83;;
31061;SDS011;17724;53.546;9.974;2023-02-13T07:20:56;18.47;;;11.80;;
31061;SDS011;17724;53.546;9.974;2023-02-13T07:24:57;18.20;;;11.53;;
31061;SDS011;17724;53.546;9.974;2023-02-13T07:28:58;18.87;;;11.27;;
31061;SDS011;17724;53.546;9.974;2023-02-13T07:32:59;18.40;;;10.80;;
31061;SDS011;17724;53.546;9.974;2023-02-13T07:37:01;19.93;;;12.03;;
31061;SDS011;17724;53.546;9.974;2023-02-13T07:41:02;18.57;;;11.27;;
31061;SDS011;17724;53.546;9.974;2023-02-13T07:45:03;19.13;;;11.40;;
31061;SDS011;17724;53.546;9.974;2023-02-13T07:49:05;18.20;;;11.53;;
31061;SDS011;17724;53.546;9.974;2023-02-13T07:53:05;18.97;;;12.43;;
31061;SDS011;17724;53.546;9.974;2023-02-13T07:57:06;19.93;;;12.23;;
31061;SDS011;17724;53.546;9.974;2023-02-13T08:01:07;19.10;;;10.43;;
31061;SDS011;17724;53.546;9.974;2023-02-13T08:05:09;19.90;;;11.53;;
31061;SDS011;17724;53.546;9.974;2023-02-13T08:09:16;18.50;;;11.30;;
31061;SDS011;17724;53.546;9.974;2023-02-13T08:13:37;18.87;;;12.40;;
31061;SDS011;17724;53.546;9.974;2023-02-13T08:17:37;19.13;;;11.40;;
31061;SDS011;17724;53.546;9.974;2023-02-13T08:21:38;21.73;;;11.43;;
31061;SDS011;17724;53.546;9.974;2023-02-13T08:25:39;21.17;;;13.33;;
31061;SDS011;17724;53.546;9.974;2023-02-13T08:29:40;19.70;;;12.50;;
31061;SDS011;17724;53.546;9.974;2023-02-13T08:33:41;19.03;;;11.70;;
31061;SDS011;17724;53.546;9.974;2023-02-13T08:37:42;20.87;;;12.80;;
31061;SDS011;17724;53.546;9.974;2023-02-13T08:41:42;20.20;;;12.53;;
31061;SDS011;17724;53.546;9.974;2023-02-13T08:45:42;22.07;;;13.53;;
31061;SDS011;17724;53.546;9.974;2023-02-13T08:49:43;20.00;;;11.90;;
31061;SDS011;17724;53.546;9.974;2023-02-13T08:53:43;20.97;;;12.57;;
31061;SDS011;17724;53.546;9.974;2023-02-13T08:57:44;20.23;;;12.30;;
31061;SDS011;17724;53.546;9.974;2023-02-13T09:01:45;18.50;;;11.50;;
31061;SDS011;17724;53.546;9.974;2023-02-13T09:05:46;21.60;;;14.00;;
31061;SDS011;17724;53.546;9.974;2023-02-13T09:09:46;21.50;;;12.57;;
31061;SDS011;17724;53.546;9.974;2023-02-13T09:13:47;21.50;;;12.80;;
31061;SDS011;17724;53.546;9.974;2023-02-13T09:17:48;20.33;;;13.10;;
31061;SDS011;17724;53.546;9.974;2023-02-13T09:21:49;19.97;;;13.07;;
31061;SDS011;17724;53.546;9.974;2023-02-13T09:25:50;20.13;;;12.33;;
31061;SDS011;17724;53.546;9.974;2023-02-13T09:29:50;20.87;;;12.00;;
31061;SDS011;17724;53.546;9.974;2023-02-13T09:33:50;21.03;;;13.20;;
31061;SDS011;17724;53.546;9.974;2023-02-13T09:37:51;19.83;;;12.10;;
31061;SDS011;17724;53.546;9.974;2023-02-13T09:41:51;19.50;;;11.80;;
31061;SDS011;17724;53.546;9.974;2023-02-13T09:45:54;20.20;;;12.10;;
31061;SDS011;17724;53.546;9.974;2023-02-13T09:54:14;18.93;;;11.30;;
31061;SDS011;17724;53.546;9.974;2023-02-13T09:58:21;20.47;;;12.53;;
31061;SDS011;17724;53.546;9.974;2023-02-13T10:07:09;19.40;;;12.87;;
31061;SDS011;17724;53.546;9.974;2023-02-13T10:15:49;21.00;;;12.97;;
31061;SDS011;17724;53.546;9.974;2023-02-13T10:19:54;21.60;;;12.10;;
31061;SDS011;17724;53.546;9.974;2023-02-13T10:28:41;23.43;;;13.07;;
31061;SDS011;17724;53.546;9.974;2023-02-13T10:37:15;20.00;;;13.03;;
31061;SDS011;17724;53.546;9.974;2023-02-13T11:03:25;19.93;;;12.20;;
31061;SDS011;17724;53.546;9.974;2023-02-13T11:07:27;24.60;;;13.37;;
31061;SDS011;17724;53.546;9.974;2023-02-13T11:15:33;20.60;;;14.33;;
31061;SDS011;17724;53.546;9.974;2023-02-13T11:19:50;19.60;;;13.07;;
31061;SDS011;17724;53.546;9.974;2023-02-13T11:23:54;21.27;;;13.20;;
31061;SDS011;17724;53.546;9.974;2023-02-13T11:28:07;22.53;;;13.53;;
31061;SDS011;17724;53.546;9.974;2023-02-13T11:36:15;21.27;;;14.37;;
31061;SDS011;17724;53.546;9.974;2023-02-13T11:40:31;20.90;;;13.00;;
31061;SDS011;17724;53.546;9.974;2023-02-13T11:44:31;20.00;;;12.57;;
31061;SDS011;17724;53.546;9.974;2023-02-13T11:48:32;21.60;;;13.83;;
31061;SDS011;17724;53.546;9.974;2023-02-13T11:52:34;22.67;;;13.70;;
31061;SDS011;17724;53.546;9.974;2023-02-13T11:56:58;21.13;;;13.30;;
31061;SDS011;17724;53.546;9.974;2023-02-13T12:05:22;20.30;;;13.30;;
31061;SDS011;17724;53.546;9.974;2023-02-13T12:09:24;24.63;;;14.03;;
31061;SDS011;17724;53.546;9.974;2023-02-13T12:13:26;22.30;;;13.80;;
31061;SDS011;17724;53.546;9.974;2023-02-13T12:17:32;21.97;;;15.00;;
31061;SDS011;17724;53.546;9.974;2023-02-13T12:30:35;24.43;;;14.83;;
31061;SDS011;17724;53.546;9.974;2023-02-13T12:39:08;24.90;;;15.70;;
31061;SDS011;17724;53.546;9.974;2023-02-13T12:47:31;22.70;;;15.50;;
31061;SDS011;17724;53.546;9.974;2023-02-13T12:52:02;22.27;;;14.60;;
31061;SDS011;17724;53.546;9.974;2023-02-13T13:00:40;21.20;;;13.80;;
31061;SDS011;17724;53.546;9.974;2023-02-13T13:09:34;24.00;;;15.37;;
31061;SDS011;17724;53.546;9.974;2023-02-13T13:13:58;21.40;;;14.67;;
31061;SDS011;17724;53.546;9.974;2023-02-13T13:18:11;26.57;;;16.60;;
31061;SDS011;17724;53.546;9.974;2023-02-13T13:22:29;20.63;;;13.13;;
31061;SDS011;17724;53.546;9.974;2023-02-13T13:26:37;24.70;;;15.03;;
31061;SDS011;17724;53.546;9.974;2023-02-13T13:30:42;24.90;;;14.00;;
31061;SDS011;17724;53.546;9.974;2023-02-13T13:34:44;20.77;;;12.27;;
31061;SDS011;17724;53.546;9.974;2023-02-13T13:42:53;21.27;;;14.20;;
31061;SDS011;17724;53.546;9.974;2023-02-13T13:47:20;23.27;;;14.43;;
31061;SDS011;17724;53.546;9.974;2023-02-13T13:51:24;21.20;;;12.97;;
31061;SDS011;17724;53.546;9.974;2023-02-13T13:55:59;24.90;;;14.57;;
31061;SDS011;17724;53.546;9.974;2023-02-13T13:59:56;21.77;;;13.73;;
31061;SDS011;17724;53.546;9.974;2023-02-13T14:03:58;23.47;;;14.77;;
31061;SDS011;17724;53.546;9.974;2023-02-13T14:08:02;22.37;;;14.73;;
31061;SDS011;17724;53.546;9.974;2023-02-13T14:16:43;26.97;;;16.40;;
31061;SDS011;17724;53.546;9.974;2023-02-13T14:24:58;26.90;;;17.13;;
31061;SDS011;17724;53.546;9.974;2023-02-13T14:33:20;26.37;;;16.53;;
31061;SDS011;17724;53.546;9.974;2023-02-13T14:37:31;26.90;;;17.00;;
31061;SDS011;17724;53.546;9.974;2023-02-13T14:42:19;25.40;;;16.10;;
31061;SDS011;17724;53.546;9.974;2023-02-13T14:50:42;25.57;;;16.67;;
31061;SDS011;17724;53.546;9.974;2023-02-13T14:54:49;26.77;;;17.27;;
31061;SDS011;17724;53.546;9.974;2023-02-13T14:58:54;30.87;;;17.00;;
31061;SDS011;17724;53.546;9.974;2023-02-13T15:03:27;60.77;;;40.53;;
31061;SDS011;17724;53.546;9.974;2023-02-13T15:07:37;28.50;;;18.83;;
31061;SDS011;17724;53.546;9.974;2023-02-13T15:11:47;25.37;;;16.40;;
31061;SDS011;17724;53.546;9.974;2023-02-13T15:15:58;31.73;;;21.67;;
31061;SDS011;17724;53.546;9.974;2023-02-13T15:20:25;30.63;;;21.03;;
31061;SDS011;17724;53.546;9.974;2023-02-13T15:24:26;29.70;;;20.00;;
31061;SDS011;17724;53.546;9.974;2023-02-13T15:28:33;28.80;;;20.63;;
31061;SDS011;17724;53.546;9.974;2023-02-13T15:32:35;46.53;;;32.70;;
31061;SDS011;17724;53.546;9.974;2023-02-13T15:36:39;60.50;;;43.03;;
31061;SDS011;17724;53.546;9.974;2023-02-13T15:40:41;39.07;;;24.17;;
31061;SDS011;17724;53.546;9.974;2023-02-13T15:44:43;33.63;;;21.37;;
31061;SDS011;17724;53.546;9.974;2023-02-13T15:48:46;28.07;;;16.50;;
31061;SDS011;17724;53.546;9.974;2023-02-13T15:52:47;26.07;;;17.43;;
31061;SDS011;17724;53.546;9.974;2023-02-13T15:56:48;27.40;;;17.93;;
31061;SDS011;17724;53.546;9.974;2023-02-13T16:00:50;25.70;;;16.40;;
31061;SDS011;17724;53.546;9.974;2023-02-13T16:04:52;24.80;;;16.40;;
31061;SDS011;17724;53.546;9.974;2023-02-13T16:08:57;28.23;;;17.07;;
31061;SDS011;17724;53.546;9.974;2023-02-13T16:13:05;25.77;;;16.57;;
31061;SDS011;17724;53.546;9.974;2023-02-13T16:17:11;24.70;;;15.77;;
31061;SDS011;17724;53.546;9.974;2023-02-13T16:21:20;27.77;;;17.70;;
31061;SDS011;17724;53.546;9.974;2023-02-13T16:25:26;26.47;;;16.47;;
31061;SDS011;17724;53.546;9.974;2023-02-13T16:29:30;27.43;;;18.07;;
31061;SDS011;17724;53.546;9.974;2023-02-13T16:33:34;27.30;;;17.77;;
31061;SDS011;17724;53.546;9.974;2023-02-13T16:37:46;23.63;;;15.80;;
31061;SDS011;17724;53.546;9.974;2023-02-13T16:41:49;27.27;;;16.57;;
31061;SDS011;17724;53.546;9.974;2023-02-13T16:45:51;23.90;;;15.20;;
31061;SDS011;17724;53.546;9.974;2023-02-13T16:49:55;25.03;;;16.20;;
31061;SDS011;17724;53.546;9.974;2023-02-13T16:54:00;77.97;;;56.60;;
31061;SDS011;17724;53.546;9.974;2023-02-13T16:58:03;50.00;;;32.77;;
31061;SDS011;17724;53.546;9.974;2023-02-13T17:06:08;31.60;;;20.83;;
31061;SDS011;17724;53.546;9.974;2023-02-13T17:14:30;24.53;;;16.37;;
31061;SDS011;17724;53.546;9.974;2023-02-13T17:18:31;27.67;;;16.77;;
31061;SDS011;17724;53.546;9.974;2023-02-13T17:26:32;23.63;;;16.40;;
31061;SDS011;17724;53.546;9.974;2023-02-13T17:30:33;27.47;;;16.10;;
31061;SDS011;17724;53.546;9.974;2023-02-13T17:34:33;25.77;;;15.93;;
31061;SDS011;17724;53.546;9.974;2023-02-13T17:38:34;25.90;;;15.63;;
31061;SDS011;17724;53.546;9.974;2023-02-13T17:42:34;26.80;;;16.73;;
31061;SDS011;17724;53.546;9.974;2023-02-13T17:46:35;43.90;;;31.50;;
31061;SDS011;17724;53.546;9.974;2023-02-13T17:50:36;37.17;;;24.30;;
31061;SDS011;17724;53.546;9.974;2023-02-13T17:54:37;39.77;;;27.80;;
31061;SDS011;17724;53.546;9.974;2023-02-13T17:58:37;29.93;;;21.40;;
31061;SDS011;17724;53.546;9.974;2023-02-13T18:02:38;62.33;;;45.07;;
31061;SDS011;17724;53.546;9.974;2023-02-13T18:06:38;37.73;;;27.63;;
31061;SDS011;17724;53.546;9.974;2023-02-13T18:10:39;45.53;;;33.47;;
31061;SDS011;17724;53.546;9.974;2023-02-13T18:14:40;29.60;;;21.17;;
31061;SDS011;17724;53.546;9.974;2023-02-13T18:18:41;30.27;;;20.10;;
31061;SDS011;17724;53.546;9.974;2023-02-13T18:22:41;26.93;;;17.30;;
31061;SDS011;17724;53.546;9.974;2023-02-13T18:26:42;28.33;;;17.03;;
31061;SDS011;17724;53.546;9.974;2023-02-13T18:30:42;27.47;;;18.00;;
31061;SDS011;17724;53.546;9.974;2023-02-13T18:34:43;29.17;;;17.63;;
31061;SDS011;17724;53.546;9.974;2023-02-13T18:38:45;25.60;;;16.20;;
31061;SDS011;17724;53.546;9.974;2023-02-13T18:42:46;25.20;;;16.30;;
31061;SDS011;17724;53.546;9.974;2023-02-13T18:46:46;29.40;;;17.03;;
31061;SDS011;17724;53.546;9.974;2023-02-13T18:50:47;92.10;;;65.93;;
31061;SDS011;17724;53.546;9.974;2023-02-13T18:54:47;50.60;;;35.57;;
31061;SDS011;17724;53.546;9.974;2023-02-13T18:58:48;36.30;;;26.33;;
31061;SDS011;17724;53.546;9.974;2023-02-13T19:02:49;36.23;;;24.03;;
31061;SDS011;17724;53.546;9.974;2023-02-13T19:06:49;33.70;;;20.33;;
31061;SDS011;17724;53.546;9.974;2023-02-13T19:10:50;31.27;;;20.90;;
31061;SDS011;17724;53.546;9.974;2023-02-13T19:14:50;34.30;;;24.07;;
31061;SDS011;17724;53.546;9.974;2023-02-13T19:18:52;30.47;;;20.00;;
31061;SDS011;17724;53.546;9.974;2023-02-13T19:22:53;31.80;;;21.47;;
31061;SDS011;17724;53.546;9.974;2023-02-13T19:26:55;27.77;;;18.07;;
31061;SDS011;17724;53.546;9.974;2023-02-13T19:31:06;35.97;;;22.60;;
31061;SDS011;17724;53.546;9.974;2023-02-13T19:35:08;28.40;;;17.80;;
31061;SDS011;17724;53.546;9.974;2023-02-13T19:39:09;55.60;;;36.37;;
31061;SDS011;17724;53.546;9.974;2023-02-13T19:43:10;29.33;;;20.17;;
31061;SDS011;17724;53.546;9.974;2023-02-13T19:47:10;30.60;;;20.20;;
31061;SDS011;17724;53.546;9.974;2023-02-13T19:51:12;28.90;;;18.10;;
31061;SDS011;17724;53.546;9.974;2023-02-13T19:55:14;28.50;;;17.67;;
31061;SDS011;17724;53.546;9.974;2023-02-13T19:59:14;27.30;;;17.27;;
31061;SDS011;17724;53.546;9.974;2023-02-13T20:03:15;26.60;;;17.10;;
31061;SDS011;17724;53.546;9.974;2023-02-13T20:07:15;28.80;;;18.27;;
31061;SDS011;17724;53.546;9.974;2023-02-13T20:11:16;26.27;;;16.73;;
31061;SDS011;17724;53.546;9.974;2023-02-13T20:15:17;25.93;;;17.10;;
31061;SDS011;17724;53.546;9.974;2023-02-13T20:19:18;31.27;;;16.93;;
31061;SDS011;17724;53.546;9.974;2023-02-13T20:23:18;29.40;;;17.43;;
31061;SDS011;17724;53.546;9.974;2023-02-13T20:27:20;31.50;;;18.27;;
31061;SDS011;17724;53.546;9.974;2023-02-13T20:31:21;25.90;;;15.93;;
31061;SDS011;17724;53.546;9.974;2023-02-13T20:35:21;52.80;;;38.47;;
31061;SDS011;17724;53.546;9.974;2023-02-13T20:39:22;41.43;;;27.00;;
31061;SDS011;17724;53.546;9.974;2023-02-13T20:43:22;27.47;;;18.03;;
31061;SDS011;17724;53.546;9.974;2023-02-13T20:47:23;30.57;;;19.77;;
31061;SDS011;17724;53.546;9.974;2023-02-13T20:51:23;28.47;;;18.33;;
31061;SDS011;17724;53.546;9.974;2023-02-13T20:55:24;28.70;;;17.80;;
31061;SDS011;17724;53.546;9.974;2023-02-13T20:59:24;29.47;;;17.93;;
31061;SDS011;17724;53.546;9.974;2023-02-13T21:03:25;27.30;;;16.97;;
31061;SDS011;17724;53.546;9.974;2023-02-13T21:07:26;29.13;;;18.07;;
31061;SDS011;17724;53.546;9.974;2023-02-13T21:11:26;26.60;;;17.53;;
31061;SDS011;17724;53.546;9.974;2023-02-13T21:15:28;27.60;;;17.20;;
31061;SDS011;17724;53.546;9.974;2023-02-13T21:19:29;27.90;;;16.30;;
31061;SDS011;17724;53.546;9.974;2023-02-13T21:23:30;32.47;;;19.60;;
31061;SDS011;17724;53.546;9.974;2023-02-13T21:27:32;30.23;;;18.40;;
31061;SDS011;17724;53.546;9.974;2023-02-13T21:31:37;67.30;;;46.73;;
31061;SDS011;17724;53.546;9.974;2023-02-13T21:35:43;35.50;;;24.13;;
31061;SDS011;17724;53.546;9.974;2023-02-13T21:39:43;30.30;;;18.97;;
31061;SDS011;17724;53.546;9.974;2023-02-13T21:43:44;31.13;;;18.83;;
31061;SDS011;17724;53.546;9.974;2023-02-13T21:47:48;28.10;;;17.60;;
31061;SDS011;17724;53.546;9.974;2023-02-13T21:51:48;29.37;;;17.83;;
31061;SDS011;17724;53.546;9.974;2023-02-13T21:55:49;29.70;;;17.93;;
31061;SDS011;17724;53.546;9.974;2023-02-13T21:59:49;31.30;;;19.60;;
31061;SDS011;17724;53.546;9.974;2023-02-13T22:03:50;32.70;;;19.53;;
31061;SDS011;17724;53.546;9.974;2023-02-13T22:07:50;32.13;;;19.67;;
31061;SDS011;17724;53.546;9.974;2023-02-13T22:12:09;30.10;;;18.03;;
31061;SDS011;17724;53.546;9.974;2023-02-13T22:16:11;30.60;;;19.10;;
31061;SDS011;17724;53.546;9.974;2023-02-13T22:20:12;33.00;;;20.30;;
31061;SDS011;17724;53.546;9.974;2023-02-13T22:24:13;33.60;;;20.20;;
31061;SDS011;17724;53.546;9.974;2023-02-13T22:28:13;29.80;;;20.27;;
31061;SDS011;17724;53.546;9.974;2023-02-13T22:32:14;28.83;;;19.40;;
31061;SDS011;17724;53.546;9.974;2023-02-13T22:36:14;29.43;;;19.30;;
31061;SDS011;17724;53.546;9.974;2023-02-13T22:40:17;31.50;;;21.60;;
31061;SDS011;17724;53.546;9.974;2023-02-13T22:44:18;32.97;;;20.77;;
31061;SDS011;17724;53.546;9.974;2023-02-13T22:48:18;31.00;;;21.00;;
31061;SDS011;17724;53.546;9.974;2023-02-13T22:52:19;30.10;;;18.00;;
31061;SDS011;17724;53.546;9.974;2023-02-13T22:56:20;33.40;;;19.10;;
31061;SDS011;17724;53.546;9.974;2023-02-13T23:00:21;33.57;;;21.77;;
31061;SDS011;17724;53.546;9.974;2023-02-13T23:04:22;31.63;;;21.10;;
31061;SDS011;17724;53.546;9.974;2023-02-13T23:08:22;31.60;;;19.90;;
31061;SDS011;17724;53.546;9.974;2023-02-13T23:12:23;32.67;;;21.60;;
31061;SDS011;17724;53.546;9.974;2023-02-13T23:16:39;30.13;;;19.17;;
31061;SDS011;17724;53.546;9.974;2023-02-13T23:21:02;32.70;;;20.30;;
31061;SDS011;17724;53.546;9.974;2023-02-13T23:25:04;36.50;;;21.90;;
31061;SDS011;17724;53.546;9.974;2023-02-13T23:29:04;31.87;;;20.37;;
31061;SDS011;17724;53.546;9.974;2023-02-13T23:33:05;32.60;;;19.87;;
31061;SDS011;17724;53.546;9.974;2023-02-13T23:37:06;33.00;;;21.27;;
31061;SDS011;17724;53.546;9.974;2023-02-13T23:41:06;34.00;;;20.63;;
31061;SDS011;17724;53.546;9.974;2023-02-13T23:45:08;30.67;;;19.23;;
31061;SDS011;17724;53.546;9.974;2023-02-13T23:49:10;31.90;;;20.00;;
31061;SDS011;17724;53.546;9.974;2023-02-13T23:53:12;33.00;;;19.50;;
31061;SDS011;17724;53.546;9.974;2023-02-13T23:57:12;31.00;;;18.80;;
